createdAt,value
2023-02-15T00:01:55.108Z,40.20
2023-02-15T00:04:50.205Z,47.10
2023-02-15T00:07:23.935Z,43.70
2023-02-15T00:09:57.624Z,35.03
2023-02-15T00:12:28.138Z,34.78
2023-02-15T00:14:59.052Z,42.35
2023-02-15T00:17:30.839Z,33.58
2023-02-15T00:20:01.758Z,32.97
2023-02-15T00:22:32.633Z,25.92
2023-02-15T00:25:03.427Z,30.52
2023-02-15T00:27:36.615Z,20.40
2023-02-15T00:30:08.566Z,20.48
2023-02-15T00:32:39.199Z,21.48
2023-02-15T00:35:11.166Z,20.98
2023-02-15T00:37:42.105Z,23.13
2023-02-15T00:40:12.714Z,23.45
2023-02-15T00:42:43.668Z,18.45
2023-02-15T00:45:16.543Z,22.50
2023-02-15T00:47:49.349Z,20.40
2023-02-15T00:50:21.847Z,18.10
2023-02-15T00:52:54.737Z,16.15
2023-02-15T00:55:25.843Z,16.75
2023-02-15T00:57:56.168Z,22.45
2023-02-15T01:00:27.019Z,19.75
2023-02-15T01:02:57.341Z,21.17
2023-02-15T01:05:28.512Z,18.10
2023-02-15T01:07:59.986Z,20.10
2023-02-15T01:10:30.856Z,20.23
2023-02-15T01:13:01.726Z,18.80
2023-02-15T01:15:33.265Z,13.95
2023-02-15T01:18:06.847Z,11.30
2023-02-15T01:20:40.925Z,13.77
2023-02-15T01:23:12.121Z,16.48
2023-02-15T01:25:43.967Z,18.15
2023-02-15T01:28:14.618Z,17.00
2023-02-15T01:30:45.407Z,14.35
2023-02-15T01:33:19.526Z,16.77
2023-02-15T01:35:50.655Z,11.07
2023-02-15T01:38:21.896Z,11.07
2023-02-15T01:41:16.033Z,18.30
2023-02-15T01:44:01.468Z,12.18
2023-02-15T01:46:42.426Z,18.52
2023-02-15T01:49:19.104Z,13.85
2023-02-15T01:51:54.385Z,20.85
2023-02-15T01:54:33.183Z,14.75
2023-02-15T01:57:07.341Z,14.45
2023-02-15T01:59:39.379Z,24.08
2023-02-15T02:02:14.867Z,18.45
2023-02-15T02:05:00.230Z,13.32
2023-02-15T02:07:34.502Z,10.68
2023-02-15T02:10:06.775Z,17.75
2023-02-15T02:12:41.856Z,14.63
2023-02-15T02:15:44.798Z,16.75
2023-02-15T02:18:37.446Z,14.07
2023-02-15T02:21:33.958Z,15.52
2023-02-15T02:24:31.486Z,16.83
2023-02-15T02:27:10.782Z,13.63
2023-02-15T02:29:47.114Z,15.02
2023-02-15T02:33:10.357Z,14.15
2023-02-15T02:35:53.041Z,14.60
2023-02-15T02:38:40.354Z,17.83
2023-02-15T02:42:21.475Z,18.38
2023-02-15T02:45:11.217Z,13.77
2023-02-15T02:47:51.908Z,13.30
2023-02-15T02:50:30.084Z,15.10
2023-02-15T02:53:01.987Z,16.92
2023-02-15T02:55:38.533Z,11.70
2023-02-15T02:58:22.896Z,11.40
2023-02-15T03:01:00.685Z,8.90
2023-02-15T03:03:39.395Z,8.75
2023-02-15T03:06:21.917Z,12.00
2023-02-15T03:09:10.025Z,10.23
2023-02-15T03:11:40.524Z,17.48
2023-02-15T03:14:12.332Z,19.33
2023-02-15T03:16:44.297Z,14.60
2023-02-15T03:19:25.006Z,13.02
2023-02-15T03:22:05.446Z,9.75
2023-02-15T03:24:54.487Z,15.40
2023-02-15T03:27:29.215Z,8.40
2023-02-15T03:30:04.270Z,6.90
2023-02-15T03:32:36.409Z,9.15
2023-02-15T03:35:07.715Z,7.50
2023-02-15T03:37:44.065Z,12.07
2023-02-15T03:40:49.155Z,7.53
2023-02-15T03:43:42.988Z,8.07
2023-02-15T03:46:35.308Z,6.40
2023-02-15T03:49:13.799Z,8.32
2023-02-15T03:51:47.610Z,9.32
2023-02-15T03:54:41.839Z,7.28
2023-02-15T03:57:53.073Z,11.98
2023-02-15T04:00:44.220Z,11.38
2023-02-15T04:03:29.999Z,10.32
2023-02-15T04:06:10.140Z,7.72
2023-02-15T04:08:59.474Z,8.60
2023-02-15T04:11:30.061Z,9.00
2023-02-15T04:14:21.197Z,10.43
2023-02-15T04:16:52.642Z,10.00
2023-02-15T04:19:41.886Z,6.25
2023-02-15T04:22:31.475Z,10.55
2023-02-15T04:25:13.994Z,10.05
2023-02-15T04:27:47.234Z,14.40
2023-02-15T04:30:20.182Z,13.30
2023-02-15T04:32:51.389Z,8.13
2023-02-15T04:35:22.354Z,11.52
2023-02-15T04:37:53.530Z,11.25
2023-02-15T04:40:24.183Z,9.05
2023-02-15T04:42:54.979Z,20.48
2023-02-15T04:45:29.776Z,8.52
2023-02-15T04:48:00.328Z,11.27
2023-02-15T04:50:30.672Z,7.38
2023-02-15T04:53:01.358Z,12.93
2023-02-15T04:55:31.891Z,5.63
2023-02-15T04:58:02.725Z,8.60
2023-02-15T05:00:34.252Z,5.78
2023-02-15T05:03:05.380Z,6.07
2023-02-15T05:05:37.910Z,8.60
2023-02-15T05:08:08.881Z,11.75
2023-02-15T05:10:39.935Z,9.68
2023-02-15T05:13:11.440Z,6.63
2023-02-15T05:15:54.178Z,9.73
2023-02-15T05:18:25.082Z,7.97
2023-02-15T05:20:55.869Z,7.93
2023-02-15T05:23:26.554Z,4.68
2023-02-15T05:26:15.491Z,5.72
2023-02-15T05:28:46.036Z,6.13
2023-02-15T05:31:21.820Z,6.70
2023-02-15T05:33:52.972Z,3.97
2023-02-15T05:36:23.958Z,12.20
2023-02-15T05:38:55.144Z,8.23
2023-02-15T05:41:27.575Z,7.22
2023-02-15T05:43:58.909Z,11.57
2023-02-15T05:46:29.671Z,15.40
2023-02-15T05:49:00.661Z,9.75
2023-02-15T05:51:31.029Z,10.20
2023-02-15T05:54:01.646Z,9.85
2023-02-15T05:56:32.565Z,8.00
2023-02-15T05:59:04.700Z,5.97
2023-02-15T06:01:35.482Z,7.15
2023-02-15T06:04:06.052Z,6.35
2023-02-15T06:06:36.856Z,6.47
2023-02-15T06:09:07.993Z,8.80
2023-02-15T06:11:39.230Z,6.95
2023-02-15T06:14:10.503Z,13.63
2023-02-15T06:16:42.163Z,10.40
2023-02-15T06:19:13.056Z,10.55
2023-02-15T06:21:43.950Z,10.13
2023-02-15T06:24:16.452Z,6.18
2023-02-15T06:26:47.518Z,11.13
2023-02-15T06:29:18.276Z,4.95
2023-02-15T06:31:53.275Z,7.63
2023-02-15T06:34:24.164Z,12.55
2023-02-15T06:36:55.409Z,6.40
2023-02-15T06:39:26.265Z,7.40
2023-02-15T06:41:56.809Z,9.00
2023-02-15T06:44:27.708Z,12.80
2023-02-15T06:46:58.625Z,13.02
2023-02-15T06:49:29.166Z,12.85
2023-02-15T06:52:08.369Z,10.82
2023-02-15T06:54:39.636Z,9.57
2023-02-15T06:57:11.562Z,11.60
2023-02-15T06:59:42.319Z,6.75
2023-02-15T07:02:16.217Z,7.65
2023-02-15T07:04:47.322Z,9.48
2023-02-15T07:07:18.474Z,8.35
2023-02-15T07:09:49.262Z,7.93
2023-02-15T07:12:39.050Z,10.63
2023-02-15T07:15:11.126Z,6.13
2023-02-15T07:17:42.563Z,6.35
2023-02-15T07:20:18.654Z,6.47
2023-02-15T07:22:50.049Z,6.97
2023-02-15T07:25:20.645Z,9.95
2023-02-15T07:27:58.312Z,9.80
2023-02-15T07:30:29.579Z,7.93
2023-02-15T07:33:19.115Z,13.73
2023-02-15T07:35:56.075Z,12.15
2023-02-15T07:38:28.772Z,11.77
2023-02-15T07:41:04.079Z,11.65
2023-02-15T07:43:37.128Z,4.40
2023-02-15T07:46:10.022Z,13.95
2023-02-15T07:48:42.497Z,7.35
2023-02-15T07:51:14.562Z,8.88
2023-02-15T07:53:45.632Z,6.15
2023-02-15T07:56:17.875Z,14.02
2023-02-15T07:58:56.591Z,8.93
2023-02-15T08:01:33.080Z,9.02
2023-02-15T08:04:13.100Z,12.02
2023-02-15T08:06:46.390Z,14.50
2023-02-15T08:09:17.660Z,6.82
2023-02-15T08:11:49.573Z,11.80
2023-02-15T08:14:22.809Z,9.18
2023-02-15T08:16:58.733Z,9.18
2023-02-15T08:19:32.361Z,9.35
2023-02-15T08:22:06.862Z,13.15
2023-02-15T08:24:39.316Z,10.65
2023-02-15T08:27:12.945Z,8.70
2023-02-15T08:29:44.172Z,7.55
2023-02-15T08:32:15.640Z,6.25
2023-02-15T08:34:47.017Z,9.20
2023-02-15T08:37:17.777Z,7.88
2023-02-15T08:39:49.008Z,8.93
2023-02-15T08:42:20.107Z,8.60
2023-02-15T08:44:52.899Z,10.82
2023-02-15T08:47:23.627Z,10.77
2023-02-15T08:49:54.731Z,12.80
2023-02-15T08:52:28.855Z,9.63
2023-02-15T08:55:00.194Z,10.85
2023-02-15T08:57:32.316Z,8.63
2023-02-15T09:00:06.532Z,11.68
2023-02-15T09:02:38.441Z,11.25
2023-02-15T09:05:21.626Z,12.43
2023-02-15T09:07:52.522Z,14.27
2023-02-15T09:10:23.162Z,15.73
2023-02-15T09:12:54.468Z,12.20
2023-02-15T09:15:25.556Z,13.43
2023-02-15T09:17:56.348Z,11.10
2023-02-15T09:20:27.483Z,9.30
2023-02-15T09:22:59.881Z,14.90
2023-02-15T09:25:31.004Z,10.52
2023-02-15T09:28:02.392Z,10.80
2023-02-15T09:30:33.228Z,9.25
2023-02-15T09:33:03.656Z,16.58
2023-02-15T09:35:33.974Z,10.23
2023-02-15T09:38:05.234Z,12.80
2023-02-15T09:40:42.866Z,10.45
2023-02-15T09:43:51.220Z,13.20
2023-02-15T09:46:59.939Z,14.30
2023-02-15T09:49:51.726Z,18.55
2023-02-15T09:52:52.253Z,15.07
2023-02-15T09:55:25.978Z,22.23
2023-02-15T09:58:10.675Z,22.52
2023-02-15T10:00:56.319Z,13.52
2023-02-15T10:03:56.374Z,13.38
2023-02-15T10:06:43.941Z,13.18
2023-02-15T10:09:25.302Z,16.88
2023-02-15T10:12:36.598Z,8.40
2023-02-15T10:15:44.910Z,13.25
2023-02-15T10:18:45.824Z,14.45
2023-02-15T10:21:31.793Z,24.90
2023-02-15T10:24:40.548Z,19.33
2023-02-15T10:27:26.349Z,15.38
2023-02-15T10:30:14.424Z,16.50
2023-02-15T10:33:03.043Z,12.02
2023-02-15T10:35:40.735Z,16.27
2023-02-15T10:38:48.723Z,11.10
2023-02-15T10:41:41.373Z,22.00
2023-02-15T10:44:26.956Z,31.30
2023-02-15T10:47:13.049Z,14.20
2023-02-15T10:50:18.943Z,11.02
2023-02-15T10:53:12.772Z,12.98
2023-02-15T10:56:01.622Z,16.25
2023-02-15T10:58:43.616Z,12.65
2023-02-15T11:01:21.814Z,15.43
2023-02-15T11:04:31.196Z,13.35
2023-02-15T11:07:07.035Z,10.70
2023-02-15T11:09:44.934Z,14.38
2023-02-15T11:12:27.315Z,14.43
2023-02-15T11:15:18.297Z,9.68
2023-02-15T11:17:59.404Z,14.15
2023-02-15T11:20:46.738Z,13.07
2023-02-15T11:23:20.253Z,26.02
2023-02-15T11:26:07.422Z,13.35
2023-02-15T11:28:52.850Z,18.83
2023-02-15T11:31:26.353Z,11.52
2023-02-15T11:34:02.635Z,14.73
2023-02-15T11:36:41.005Z,21.80
2023-02-15T11:39:20.752Z,21.48
2023-02-15T11:41:55.916Z,24.02
2023-02-15T11:44:39.882Z,21.65
2023-02-15T11:47:14.948Z,20.65
2023-02-15T11:49:49.853Z,23.42
2023-02-15T11:52:21.566Z,27.38
2023-02-15T11:54:54.266Z,28.67
2023-02-15T11:57:40.180Z,28.42
2023-02-15T12:00:21.025Z,32.30
2023-02-15T12:02:56.019Z,32.42
2023-02-15T12:05:28.170Z,31.48
2023-02-15T12:08:12.074Z,24.38
2023-02-15T12:11:04.123Z,35.38
2023-02-15T12:13:35.358Z,26.40
2023-02-15T12:16:12.776Z,26.38
2023-02-15T12:18:48.818Z,28.95
2023-02-15T12:21:41.802Z,18.95
2023-02-15T12:24:21.558Z,23.58
2023-02-15T12:27:26.296Z,23.48
2023-02-15T12:30:04.269Z,19.48
2023-02-15T12:32:38.087Z,20.33
2023-02-15T12:35:17.150Z,29.63
2023-02-15T12:38:03.904Z,24.85
2023-02-15T12:40:37.478Z,27.98
2023-02-15T12:43:11.366Z,27.73
2023-02-15T12:45:50.952Z,27.90
2023-02-15T12:48:24.137Z,41.13
2023-02-15T12:50:57.333Z,34.55
2023-02-15T12:53:36.600Z,35.38
2023-02-15T12:56:13.227Z,34.38
2023-02-15T12:58:44.712Z,31.08
2023-02-15T13:01:20.995Z,34.15
2023-02-15T13:03:57.696Z,26.55
2023-02-15T13:06:30.815Z,24.02
2023-02-15T13:09:18.942Z,27.67
2023-02-15T13:11:49.987Z,24.10
2023-02-15T13:14:30.865Z,26.58
2023-02-15T13:17:03.633Z,22.60
2023-02-15T13:19:39.002Z,17.50
2023-02-15T13:22:16.714Z,26.23
2023-02-15T13:24:56.015Z,22.15
2023-02-15T13:27:37.898Z,28.23
2023-02-15T13:30:23.353Z,36.08
2023-02-15T13:33:09.774Z,31.27
2023-02-15T13:35:47.614Z,28.27
2023-02-15T13:38:20.784Z,31.08
2023-02-15T13:40:54.526Z,39.45
2023-02-15T13:43:37.767Z,31.98
2023-02-15T13:46:24.250Z,29.30
2023-02-15T13:49:24.558Z,29.55
2023-02-15T13:52:07.959Z,37.95
2023-02-15T13:54:45.067Z,31.17
2023-02-15T13:57:41.696Z,29.38
2023-02-15T14:00:25.549Z,30.55
2023-02-15T14:03:02.192Z,25.55
2023-02-15T14:06:07.857Z,22.13
2023-02-15T14:09:02.748Z,26.55
2023-02-15T14:11:47.318Z,35.33
2023-02-15T14:14:36.344Z,29.90
2023-02-15T14:17:13.719Z,25.73
2023-02-15T14:20:04.600Z,27.90
2023-02-15T14:22:43.402Z,30.42
2023-02-15T14:25:43.921Z,29.80
2023-02-15T14:28:19.627Z,22.88
2023-02-15T14:30:52.785Z,24.42
2023-02-15T14:33:34.680Z,26.88
2023-02-15T14:36:08.897Z,25.48
2023-02-15T14:38:54.355Z,23.73
2023-02-15T14:41:32.004Z,21.20
2023-02-15T14:44:32.955Z,18.90
2023-02-15T14:47:21.341Z,19.83
2023-02-15T14:49:52.907Z,20.65
2023-02-15T14:52:23.908Z,20.80
2023-02-15T14:55:01.289Z,25.88
2023-02-15T14:57:36.023Z,21.23
2023-02-15T15:00:34.744Z,22.13
2023-02-15T15:03:22.217Z,26.25
2023-02-15T15:06:00.640Z,26.33
2023-02-15T15:08:39.724Z,20.58
2023-02-15T15:11:44.905Z,21.98
2023-02-15T15:14:36.953Z,23.50
2023-02-15T15:17:09.095Z,18.88
2023-02-15T15:19:52.755Z,24.98
2023-02-15T15:22:26.025Z,20.70
2023-02-15T15:25:34.099Z,23.23
2023-02-15T15:28:07.801Z,32.63
2023-02-15T15:30:38.537Z,32.95
2023-02-15T15:33:21.793Z,32.35
2023-02-15T15:36:08.670Z,33.10
2023-02-15T15:39:16.328Z,34.92
2023-02-15T15:42:14.643Z,30.50
2023-02-15T15:45:00.108Z,33.85
2023-02-15T15:47:53.468Z,37.55
2023-02-15T15:50:29.483Z,28.25
2023-02-15T15:53:01.550Z,27.38
2023-02-15T15:55:34.171Z,27.25
2023-02-15T15:58:09.550Z,27.27
2023-02-15T16:00:58.837Z,34.05
2023-02-15T16:03:32.196Z,35.80
2023-02-15T16:06:03.229Z,25.65
2023-02-15T16:08:43.192Z,32.50
2023-02-15T16:11:18.209Z,25.10
2023-02-15T16:13:50.230Z,26.80
2023-02-15T16:16:27.387Z,27.05
2023-02-15T16:19:07.511Z,23.88
2023-02-15T16:21:39.311Z,18.85
2023-02-15T16:24:42.144Z,22.80
2023-02-15T16:27:27.638Z,24.73
2023-02-15T16:29:58.465Z,19.95
2023-02-15T16:32:30.416Z,18.73
2023-02-15T16:35:03.989Z,21.50
2023-02-15T16:37:36.542Z,19.67
2023-02-15T16:40:07.703Z,20.00
2023-02-15T16:42:38.447Z,23.95
2023-02-15T16:45:16.345Z,23.75
2023-02-15T16:47:49.596Z,28.20
2023-02-15T16:50:23.331Z,22.90
2023-02-15T16:52:54.842Z,22.10
2023-02-15T16:55:43.155Z,19.98
2023-02-15T16:58:18.701Z,18.30
2023-02-15T17:00:49.429Z,19.80
2023-02-15T17:03:20.274Z,16.77
2023-02-15T17:05:53.394Z,18.63
2023-02-15T17:08:33.253Z,15.98
2023-02-15T17:11:19.661Z,18.35
2023-02-15T17:14:23.044Z,16.50
2023-02-15T17:16:58.234Z,21.80
2023-02-15T17:19:34.785Z,20.90
2023-02-15T17:22:09.342Z,19.13
2023-02-15T17:24:44.916Z,16.85
2023-02-15T17:27:23.119Z,15.63
2023-02-15T17:29:59.102Z,15.73
2023-02-15T17:32:33.484Z,17.70
2023-02-15T17:35:12.921Z,15.02
2023-02-15T17:37:48.253Z,14.32
2023-02-15T17:40:28.053Z,13.07
2023-02-15T17:42:58.840Z,10.55
2023-02-15T17:45:39.076Z,8.38
2023-02-15T17:48:17.626Z,10.77
2023-02-15T17:50:48.816Z,10.57
2023-02-15T17:53:20.587Z,8.95
2023-02-15T17:55:51.838Z,7.82
2023-02-15T17:58:25.642Z,8.65
2023-02-15T18:01:18.289Z,10.32
2023-02-15T18:04:09.524Z,10.27
2023-02-15T18:07:01.219Z,6.13
2023-02-15T18:09:49.944Z,7.03
2023-02-15T18:12:31.155Z,8.48
2023-02-15T18:15:02.857Z,8.57
2023-02-15T18:17:44.143Z,7.32
2023-02-15T18:20:21.798Z,8.18
2023-02-15T18:22:55.630Z,7.47
2023-02-15T18:25:26.960Z,9.57
2023-02-15T18:27:57.908Z,7.55
2023-02-15T18:30:29.192Z,11.60
2023-02-15T18:33:00.597Z,7.70
2023-02-15T18:35:33.300Z,9.70
2023-02-15T18:38:06.669Z,9.25
2023-02-15T18:40:37.370Z,6.20
2023-02-15T18:43:07.634Z,10.13
2023-02-15T18:45:39.622Z,9.75
2023-02-15T18:48:10.965Z,8.73
2023-02-15T18:50:41.633Z,7.15
2023-02-15T18:53:29.639Z,8.88
2023-02-15T18:56:00.865Z,7.07
2023-02-15T18:58:31.965Z,9.50
2023-02-15T19:01:02.651Z,7.43
2023-02-15T19:03:33.805Z,11.73
2023-02-15T19:06:08.173Z,13.75
2023-02-15T19:08:38.896Z,9.93
2023-02-15T19:11:18.101Z,14.02
2023-02-15T19:13:50.033Z,13.68
2023-02-15T19:16:34.520Z,10.43
2023-02-15T19:19:07.260Z,10.02
2023-02-15T19:21:38.200Z,12.75
2023-02-15T19:24:12.841Z,16.20
2023-02-15T19:26:45.916Z,13.35
2023-02-15T19:29:28.980Z,14.32
2023-02-15T19:32:00.076Z,10.73
2023-02-15T19:34:31.151Z,13.80
2023-02-15T19:37:02.086Z,13.75
2023-02-15T19:39:39.564Z,10.23
2023-02-15T19:42:23.270Z,12.73
2023-02-15T19:44:55.384Z,8.93
2023-02-15T19:47:30.196Z,11.80
2023-02-15T19:50:06.764Z,9.38
2023-02-15T19:52:37.802Z,9.63
2023-02-15T19:55:08.405Z,10.43
2023-02-15T19:57:39.032Z,11.30
2023-02-15T20:00:22.454Z,12.10
2023-02-15T20:02:54.946Z,13.05
2023-02-15T20:05:26.258Z,11.88
2023-02-15T20:07:57.005Z,12.50
2023-02-15T20:10:33.820Z,11.02
2023-02-15T20:13:04.736Z,12.02
2023-02-15T20:15:36.796Z,12.95
2023-02-15T20:18:07.839Z,11.15
2023-02-15T20:20:46.142Z,11.90
2023-02-15T20:23:24.284Z,10.45
2023-02-15T20:25:55.541Z,10.65
2023-02-15T20:28:27.911Z,11.48
2023-02-15T20:30:58.801Z,14.57
2023-02-15T20:33:29.244Z,10.70
2023-02-15T20:36:02.339Z,12.65
2023-02-15T20:38:33.724Z,13.75
2023-02-15T20:41:22.701Z,13.40
2023-02-15T20:43:54.069Z,12.15
2023-02-15T20:46:25.066Z,13.52
2023-02-15T20:48:55.759Z,12.02
2023-02-15T20:51:26.395Z,15.30
2023-02-15T20:53:57.748Z,15.55
2023-02-15T20:56:28.172Z,13.60
2023-02-15T20:58:58.961Z,13.43
2023-02-15T21:01:29.823Z,13.50
2023-02-15T21:04:01.298Z,15.38
2023-02-15T21:06:31.781Z,14.13
2023-02-15T21:09:04.337Z,15.85
2023-02-15T21:11:34.669Z,11.43
2023-02-15T21:14:06.570Z,11.98
2023-02-15T21:16:37.199Z,15.55
2023-02-15T21:19:14.763Z,15.68
2023-02-15T21:21:49.869Z,14.38
2023-02-15T21:24:30.880Z,15.75
2023-02-15T21:27:12.871Z,12.45
2023-02-15T21:29:43.867Z,16.25
2023-02-15T21:32:14.529Z,10.98
2023-02-15T21:34:45.282Z,12.23
2023-02-15T21:37:42.505Z,14.18
2023-02-15T21:40:16.132Z,13.32
2023-02-15T21:43:05.955Z,16.70
2023-02-15T21:45:54.503Z,14.20
2023-02-15T21:48:25.116Z,13.60
2023-02-15T21:51:16.900Z,16.00
2023-02-15T21:53:48.516Z,12.55
2023-02-15T21:56:25.243Z,13.05
2023-02-15T21:58:55.929Z,13.25
2023-02-15T22:01:29.101Z,10.82
2023-02-15T22:04:00.802Z,12.98
2023-02-15T22:06:31.317Z,13.15
2023-02-15T22:09:01.933Z,12.60
2023-02-15T22:11:33.610Z,14.27
2023-02-15T22:14:03.910Z,14.13
2023-02-15T22:16:34.757Z,14.50
2023-02-15T22:19:05.897Z,17.00
2023-02-15T22:21:36.486Z,13.90
2023-02-15T22:24:07.293Z,13.45
2023-02-15T22:26:38.287Z,14.68
2023-02-15T22:29:08.580Z,13.63
2023-02-15T22:31:39.940Z,13.85
2023-02-15T22:34:32.485Z,13.88
2023-02-15T22:37:04.128Z,15.95
2023-02-15T22:39:34.999Z,17.27
2023-02-15T22:42:06.280Z,14.35
2023-02-15T22:44:37.107Z,17.95
2023-02-15T22:47:09.914Z,16.45
2023-02-15T22:49:41.027Z,18.17
2023-02-15T22:52:14.883Z,15.75
2023-02-15T22:54:45.488Z,14.93
2023-02-15T22:57:45.979Z,16.25
2023-02-15T23:00:25.639Z,16.60
2023-02-15T23:02:56.792Z,17.20
2023-02-15T23:05:31.675Z,18.52
2023-02-15T23:08:02.600Z,18.65
2023-02-15T23:10:33.634Z,13.75
2023-02-15T23:13:25.735Z,15.60
2023-02-15T23:16:00.041Z,15.63
2023-02-15T23:18:40.125Z,18.70
2023-02-15T23:21:19.181Z,16.15
2023-02-15T23:23:54.035Z,16.08
2023-02-15T23:26:28.739Z,18.00
2023-02-15T23:29:01.806Z,14.65
2023-02-15T23:31:35.254Z,19.45
2023-02-15T23:34:17.157Z,17.45
2023-02-15T23:36:47.909Z,16.92
2023-02-15T23:39:39.314Z,19.17
2023-02-15T23:42:14.546Z,19.33
2023-02-15T23:44:46.669Z,18.23
2023-02-15T23:47:54.836Z,18.25
2023-02-15T23:50:31.773Z,19.25
2023-02-15T23:53:02.274Z,22.00
2023-02-15T23:55:40.801Z,18.08
2023-02-15T23:58:19.336Z,23.92
